Time,TemperatureF,DewpointF,PressureIn,WindDirection,WindDirectionDegrees,WindSpeedMPH,WindSpeedGustMPH,Humidity,HourlyPrecipIn,Conditions,Clouds,dailyrainin,SoftwareType,DateUTC
2013-04-28 00:00:00,59.6,44.3,30.30,South,170,2.0,3.0,57,0.00,,,0.00,Wunderground v.1.15,2013-04-28 04:00:00,
2013-04-28 00:10:00,59.6,44.3,30.30,ENE,77,3.0,3.0,57,0.00,,,0.00,Wunderground v.1.15,2013-04-28 04:10:00,
2013-04-28 00:20:00,59.3,44.1,30.31,South,169,2.0,2.0,57,0.00,,,0.00,Wunderground v.1.15,2013-04-28 04:20:00,
2013-04-28 00:30:00,58.9,44.1,30.30,SSW,192,2.0,2.0,58,0.00,,,0.00,Wunderground v.1.15,2013-04-28 04:30:00,
2013-04-28 00:40:00,58.5,44.2,30.30,South,182,1.0,1.0,59,0.00,,,0.00,Wunderground v.1.15,2013-04-28 04:40:00,
2013-04-28 00:50:00,58.1,43.8,30.30,SSE,165,1.0,8.0,59,0.00,,,0.00,Wunderground v.1.15,2013-04-28 04:50:00,
2013-04-28 01:00:00,57.8,43.6,30.30,South,188,2.0,4.0,59,0.00,,,0.00,Wunderground v.1.15,2013-04-28 05:00:00,
2013-04-28 01:10:00,57.8,44.0,30.30,SSE,155,2.0,2.0,60,0.00,,,0.00,Wunderground v.1.15,2013-04-28 05:10:00,
2013-04-28 01:20:00,57.5,43.7,30.30,ESE,114,1.0,3.0,60,0.00,,,0.00,Wunderground v.1.15,2013-04-28 05:20:00,
2013-04-28 01:30:00,57.3,44.0,30.30,South,178,1.0,2.0,61,0.00,,,0.00,Wunderground v.1.15,2013-04-28 05:30:00,
2013-04-28 01:40:00,57.0,44.1,30.30,SW,232,0.0,5.0,62,0.00,,,0.00,Wunderground v.1.15,2013-04-28 05:40:00,
2013-04-28 01:50:00,56.6,45.4,30.30,SW,232,0.0,5.0,66,0.00,,,0.00,Wunderground v.1.15,2013-04-28 05:50:00,
2013-04-28 02:00:00,56.1,44.5,30.30,SW,216,0.0,0.0,65,0.00,,,0.00,Wunderground v.1.15,2013-04-28 06:00:00,
2013-04-28 02:10:00,55.5,43.9,30.30,SW,216,0.0,0.0,65,0.00,,,0.00,Wunderground v.1.15,2013-04-28 06:10:00,
2013-04-28 02:20:00,55.2,44.0,30.30,SW,215,0.0,0.0,66,0.00,,,0.00,Wunderground v.1.15,2013-04-28 06:20:00,
2013-04-28 02:30:00,55.0,44.2,30.29,SW,215,0.0,0.0,67,0.00,,,0.00,Wunderground v.1.15,2013-04-28 06:30:00,
2013-04-28 02:40:00,54.9,43.7,30.29,SW,215,0.0,6.0,66,0.00,,,0.00,Wunderground v.1.15,2013-04-28 06:40:00,
2013-04-28 02:50:00,54.8,43.7,30.29,SW,216,0.0,6.0,66,0.00,,,0.00,Wunderground v.1.15,2013-04-28 06:50:00,
2013-04-28 03:00:00,54.6,45.0,30.28,SW,215,0.0,0.0,70,0.00,,,0.00,Wunderground v.1.15,2013-04-28 07:00:00,
2013-04-28 03:10:00,54.2,45.0,30.28,SW,215,0.0,0.0,71,0.00,,,0.00,Wunderground v.1.15,2013-04-28 07:10:00,
2013-04-28 03:20:00,53.7,44.9,30.28,SW,216,0.0,0.0,72,0.00,,,0.00,Wunderground v.1.15,2013-04-28 07:20:00,
2013-04-28 03:30:00,53.5,45.1,30.28,SW,216,0.0,0.0,73,0.00,,,0.00,Wunderground v.1.15,2013-04-28 07:30:00,
2013-04-28 03:40:00,53.2,45.1,30.27,SW,215,0.0,2.0,74,0.00,,,0.00,Wunderground v.1.15,2013-04-28 07:40:00,
2013-04-28 03:50:00,52.9,45.5,30.28,SW,216,0.0,2.0,76,0.00,,,0.00,Wunderground v.1.15,2013-04-28 07:50:00,
2013-04-28 04:00:00,52.8,45.8,30.27,SW,216,0.0,1.0,77,0.00,,,0.00,Wunderground v.1.15,2013-04-28 08:00:00,
2013-04-28 04:10:00,52.6,45.9,30.28,SW,216,0.0,0.0,78,0.00,,,0.00,Wunderground v.1.15,2013-04-28 08:10:00,
2013-04-28 04:20:00,52.5,45.5,30.28,SW,216,0.0,1.0,77,0.00,,,0.00,Wunderground v.1.15,2013-04-28 08:20:00,
2013-04-28 04:30:00,52.6,45.6,30.28,SW,215,0.0,0.0,77,0.00,,,0.00,Wunderground v.1.15,2013-04-28 08:30:00,
2013-04-28 04:40:00,52.6,44.9,30.28,SSW,213,0.0,1.0,75,0.00,,,0.00,Wunderground v.1.15,2013-04-28 08:40:00,
2013-04-28 04:50:00,52.6,44.5,30.28,SSW,213,0.0,1.0,74,0.00,,,0.00,Wunderground v.1.15,2013-04-28 08:50:00,
2013-04-28 05:00:00,52.6,45.2,30.27,SSW,213,0.0,0.0,76,0.00,,,0.00,Wunderground v.1.15,2013-04-28 09:00:00,
2013-04-28 05:10:00,52.5,44.8,30.27,SSW,213,0.0,0.0,75,0.00,,,0.00,Wunderground v.1.15,2013-04-28 09:10:00,
2013-04-28 05:20:00,52.5,45.5,30.27,SSW,213,0.0,0.0,77,0.00,,,0.00,Wunderground v.1.15,2013-04-28 09:20:00,
2013-04-28 05:30:00,52.4,45.7,30.27,SSW,213,0.0,0.0,78,0.00,,,0.00,Wunderground v.1.15,2013-04-28 09:30:00,
2013-04-28 05:40:00,52.3,46.0,30.27,SSW,213,0.0,3.0,79,0.00,,,0.00,Wunderground v.1.15,2013-04-28 09:40:00,
2013-04-28 05:50:00,52.0,45.7,30.27,SSW,213,0.0,3.0,79,0.00,,,0.00,Wunderground v.1.15,2013-04-28 09:50:00,
2013-04-28 06:00:00,51.9,45.6,30.27,SSW,213,0.0,0.0,79,0.00,,,0.00,Wunderground v.1.15,2013-04-28 10:00:00,
2013-04-28 06:10:00,51.9,45.9,30.28,SSW,213,0.0,0.0,80,0.00,,,0.00,Wunderground v.1.15,2013-04-28 10:10:00,
2013-04-28 06:20:00,51.8,45.5,30.28,SSW,213,0.0,0.0,79,0.00,,,0.00,Wunderground v.1.15,2013-04-28 10:20:00,
2013-04-28 06:30:00,51.7,46.1,30.28,SSW,213,0.0,0.0,81,0.00,,,0.00,Wunderground v.1.15,2013-04-28 10:30:00,
2013-04-28 06:40:00,51.5,45.5,30.28,SSW,213,0.0,2.0,80,0.00,,,0.00,Wunderground v.1.15,2013-04-28 10:40:00,
2013-04-28 06:50:00,51.3,45.7,30.29,SSW,213,0.0,2.0,81,0.00,,,0.00,Wunderground v.1.15,2013-04-28 10:50:00,
2013-04-28 07:00:00,51.0,45.4,30.29,SSW,211,0.0,0.0,81,0.00,,,0.00,Wunderground v.1.15,2013-04-28 11:00:00,
2013-04-28 07:10:00,51.2,46.2,30.29,SSW,211,0.0,0.0,83,0.00,,,0.00,Wunderground v.1.15,2013-04-28 11:10:00,
2013-04-28 07:20:00,51.5,46.5,30.28,SSW,211,0.0,0.0,83,0.00,,,0.00,Wunderground v.1.15,2013-04-28 11:20:00,
2013-04-28 07:30:00,52.4,46.7,30.29,SSW,211,0.0,0.0,81,0.00,,,0.00,Wunderground v.1.15,2013-04-28 11:30:00,
2013-04-28 07:40:00,53.1,46.1,30.29,South,189,1.0,1.0,77,0.00,,,0.00,Wunderground v.1.15,2013-04-28 11:40:00,
2013-04-28 07:50:00,53.8,45.7,30.29,South,178,1.0,1.0,74,0.00,,,0.00,Wunderground v.1.15,2013-04-28 11:50:00,
2013-04-28 08:00:00,54.3,45.8,30.29,SE,127,1.0,1.0,73,0.00,,,0.00,Wunderground v.1.15,2013-04-28 12:00:00,
2013-04-28 08:10:00,54.6,45.4,30.30,SE,128,0.0,1.0,71,0.00,,,0.00,Wunderground v.1.15,2013-04-28 12:10:00,
2013-04-28 08:20:00,55.0,45.8,30.29,SE,129,0.0,3.0,71,0.00,,,0.00,Wunderground v.1.15,2013-04-28 12:20:00,
2013-04-28 08:30:00,55.2,45.6,30.29,SE,129,1.0,1.0,70,0.00,,,0.00,Wunderground v.1.15,2013-04-28 12:30:00,
2013-04-28 08:40:00,55.3,45.7,30.29,SE,129,1.0,3.0,70,0.00,,,0.00,Wunderground v.1.15,2013-04-28 12:40:00,
2013-04-28 08:50:00,55.5,45.9,30.29,SSE,165,1.0,3.0,70,0.00,,,0.00,Wunderground v.1.15,2013-04-28 12:50:00,
2013-04-28 09:00:00,55.6,46.0,30.29,SSE,161,1.0,1.0,70,0.00,,,0.00,Wunderground v.1.15,2013-04-28 13:00:00,
2013-04-28 09:10:00,56.0,46.0,30.29,South,178,1.0,1.0,69,0.00,,,0.00,Wunderground v.1.15,2013-04-28 13:10:00,
2013-04-28 09:20:00,55.9,45.1,30.29,SE,145,2.0,2.0,67,0.00,,,0.00,Wunderground v.1.15,2013-04-28 13:20:00,
2013-04-28 09:30:00,55.8,44.6,30.29,SE,138,3.0,3.0,66,0.00,,,0.00,Wunderground v.1.15,2013-04-28 13:30:00,
2013-04-28 09:40:00,55.7,45.3,30.30,SE,146,2.0,2.0,68,0.00,,,0.00,Wunderground v.1.15,2013-04-28 13:40:00,
2013-04-28 09:50:00,55.6,46.0,30.30,SE,124,2.0,3.0,70,0.00,,,0.00,Wunderground v.1.15,2013-04-28 13:50:00,
2013-04-28 10:00:00,55.6,45.6,30.29,SE,146,3.0,3.0,69,0.00,,,0.00,Wunderground v.1.15,2013-04-28 14:00:00,
2013-04-28 10:10:00,55.5,45.9,30.30,SSW,211,2.0,2.0,70,0.00,,,0.00,Wunderground v.1.15,2013-04-28 14:10:00,
2013-04-28 10:20:00,55.4,46.2,30.30,South,186,1.0,1.0,71,0.00,,,0.00,Wunderground v.1.15,2013-04-28 14:20:00,
2013-04-28 10:30:00,55.3,46.1,30.30,SE,137,1.0,2.0,71,0.00,,,0.00,Wunderground v.1.15,2013-04-28 14:30:00,
2013-04-28 10:40:00,55.2,47.4,30.31,SSE,163,2.0,2.0,75,0.00,,,0.00,Wunderground v.1.15,2013-04-28 14:40:00,
2013-04-28 10:50:00,55.0,47.6,30.31,SE,136,1.0,1.0,76,0.00,,,0.00,Wunderground v.1.15,2013-04-28 14:50:00,
2013-04-28 11:00:00,54.9,47.8,30.31,SE,132,2.0,2.0,77,0.00,,,0.00,Wunderground v.1.15,2013-04-28 15:00:00,
2013-04-28 11:10:00,54.8,48.4,30.31,SE,137,3.0,3.0,79,0.00,,,0.00,Wunderground v.1.15,2013-04-28 15:10:00,
2013-04-28 11:20:00,54.9,49.2,30.30,SSE,149,2.0,2.0,81,0.00,,,0.00,Wunderground v.1.15,2013-04-28 15:20:00,
2013-04-28 11:30:00,55.2,49.1,30.30,SW,219,1.0,2.0,80,0.00,,,0.00,Wunderground v.1.15,2013-04-28 15:30:00,
2013-04-28 11:40:00,54.8,49.1,30.31,SSW,194,3.0,3.0,81,0.00,,,0.00,Wunderground v.1.15,2013-04-28 15:40:00,
2013-04-28 11:50:00,54.6,49.2,30.31,South,179,2.0,5.0,82,0.00,,,0.00,Wunderground v.1.15,2013-04-28 15:50:00,
2013-04-28 12:00:00,54.5,49.8,30.31,South,170,1.0,1.0,84,0.00,,,0.01,Wunderground v.1.15,2013-04-28 16:00:00,
2013-04-28 12:10:00,54.5,49.8,30.31,SSE,155,0.0,2.0,84,0.00,,,0.01,Wunderground v.1.15,2013-04-28 16:10:00,
2013-04-28 12:20:00,54.4,49.0,30.31,SSW,209,2.0,2.0,82,0.00,,,0.01,Wunderground v.1.15,2013-04-28 16:20:00,
2013-04-28 12:30:00,54.6,49.5,30.30,SE,136,1.0,1.0,83,0.00,,,0.01,Wunderground v.1.15,2013-04-28 16:30:00,
2013-04-28 12:40:00,54.7,49.6,30.30,ESE,123,2.0,2.0,83,0.00,,,0.01,Wunderground v.1.15,2013-04-28 16:40:00,
2013-04-28 12:50:00,54.8,50.4,30.30,SE,133,1.0,1.0,85,0.00,,,0.01,Wunderground v.1.15,2013-04-28 16:50:00,
2013-04-28 13:00:00,54.8,50.7,30.29,South,175,1.0,1.0,86,0.00,,,0.01,Wunderground v.1.15,2013-04-28 17:00:00,
2013-04-28 13:10:00,54.8,51.0,30.29,SSE,163,1.0,1.0,87,0.00,,,0.02,Wunderground v.1.15,2013-04-28 17:10:00,
2013-04-28 13:20:00,54.9,52.0,30.29,SSE,163,1.0,1.0,90,0.00,,,0.02,Wunderground v.1.15,2013-04-28 17:20:00,
2013-04-28 13:30:00,54.8,51.6,30.29,SSE,161,1.0,2.0,89,0.05,,,0.03,Wunderground v.1.15,2013-04-28 17:30:00,
2013-04-28 13:40:00,54.8,51.6,30.29,SSE,150,1.0,4.0,89,0.04,,,0.04,Wunderground v.1.15,2013-04-28 17:40:00,
2013-04-28 13:50:00,55.0,52.4,30.29,SE,138,1.0,1.0,91,0.05,,,0.05,Wunderground v.1.15,2013-04-28 17:50:00,
2013-04-28 14:00:00,54.8,51.3,30.29,ESE,115,1.0,5.0,88,0.04,,,0.05,Wunderground v.1.15,2013-04-28 18:00:00,
2013-04-28 14:10:00,54.4,50.9,30.28,SE,144,2.0,2.0,88,0.00,,,0.06,Wunderground v.1.15,2013-04-28 18:10:00,
2013-04-28 14:20:00,54.4,51.5,30.28,South,188,1.0,1.0,90,0.00,,,0.06,Wunderground v.1.15,2013-04-28 18:20:00,
2013-04-28 14:30:00,54.5,51.9,30.28,SSE,159,1.0,1.0,91,0.00,,,0.07,Wunderground v.1.15,2013-04-28 18:30:00,
2013-04-28 14:40:00,54.5,51.9,30.27,ESE,121,1.0,4.0,91,0.00,,,0.07,Wunderground v.1.15,2013-04-28 18:40:00,
2013-04-28 14:50:00,54.7,51.8,30.27,SSE,163,1.0,4.0,90,0.00,,,0.07,Wunderground v.1.15,2013-04-28 18:50:00,
2013-04-28 15:00:00,54.8,51.9,30.27,SE,138,1.0,2.0,90,0.00,,,0.07,Wunderground v.1.15,2013-04-28 19:00:00,
2013-04-28 15:10:00,55.0,52.1,30.26,ESE,115,1.0,1.0,90,0.00,,,0.07,Wunderground v.1.15,2013-04-28 19:10:00,
2013-04-28 15:20:00,56.1,53.8,30.25,SE,131,0.0,2.0,92,0.00,,,0.07,Wunderground v.1.15,2013-04-28 19:20:00,
2013-04-28 15:30:00,56.8,53.0,30.25,South,186,1.0,2.0,87,0.00,,,0.07,Wunderground v.1.15,2013-04-28 19:30:00,
2013-04-28 15:40:00,56.8,52.7,30.24,SE,136,1.0,3.0,86,0.00,,,0.07,Wunderground v.1.15,2013-04-28 19:40:00,
2013-04-28 15:50:00,57.2,54.0,30.24,SSE,147,0.0,3.0,89,0.00,,,0.07,Wunderground v.1.15,2013-04-28 19:50:00,
2013-04-28 16:00:00,57.3,53.1,30.23,SE,141,2.0,2.0,86,0.00,,,0.07,Wunderground v.1.15,2013-04-28 20:00:00,
2013-04-28 16:10:00,57.2,52.1,30.23,SSE,159,3.0,3.0,83,0.00,,,0.07,Wunderground v.1.15,2013-04-28 20:10:00,
2013-04-28 16:20:00,57.0,52.2,30.22,SW,229,1.0,1.0,84,0.00,,,0.07,Wunderground v.1.15,2013-04-28 20:20:00,
2013-04-28 16:30:00,56.8,52.0,30.22,SSE,151,1.0,1.0,84,0.00,,,0.07,Wunderground v.1.15,2013-04-28 20:30:00,
2013-04-28 16:40:00,56.7,51.9,30.22,SE,146,0.0,5.0,84,0.00,,,0.07,Wunderground v.1.15,2013-04-28 20:40:00,
2013-04-28 16:50:00,56.6,52.5,30.22,SE,146,0.0,5.0,86,0.00,,,0.07,Wunderground v.1.15,2013-04-28 20:50:00,
2013-04-28 17:00:00,56.5,52.4,30.22,SE,146,0.0,0.0,86,0.00,,,0.07,Wunderground v.1.15,2013-04-28 21:00:00,
2013-04-28 17:10:00,56.4,52.6,30.21,SE,146,0.0,0.0,87,0.00,,,0.07,Wunderground v.1.15,2013-04-28 21:10:00,
2013-04-28 17:20:00,56.3,52.8,30.21,SE,146,0.0,1.0,88,0.00,,,0.07,Wunderground v.1.15,2013-04-28 21:20:00,
2013-04-28 17:30:00,56.0,52.5,30.21,SE,146,0.0,0.0,88,0.00,,,0.07,Wunderground v.1.15,2013-04-28 21:30:00,
2013-04-28 17:40:00,55.7,52.5,30.20,SE,146,0.0,5.0,89,0.00,,,0.07,Wunderground v.1.15,2013-04-28 21:40:00,
2013-04-28 17:50:00,55.7,53.1,30.19,SE,146,0.0,5.0,91,0.00,,,0.07,Wunderground v.1.15,2013-04-28 21:50:00,
2013-04-28 18:00:00,55.7,53.4,30.19,SE,146,0.0,0.0,92,0.00,,,0.07,Wunderground v.1.15,2013-04-28 22:00:00,
2013-04-28 18:10:00,55.8,53.5,30.19,SE,146,0.0,0.0,92,0.00,,,0.07,Wunderground v.1.15,2013-04-28 22:10:00,
2013-04-28 18:20:00,55.8,53.2,30.19,SE,146,0.0,0.0,91,0.00,,,0.07,Wunderground v.1.15,2013-04-28 22:20:00,
2013-04-28 18:30:00,55.7,53.1,30.18,SE,146,0.0,0.0,91,0.00,,,0.07,Wunderground v.1.15,2013-04-28 22:30:00,
2013-04-28 18:40:00,55.7,53.1,30.17,SE,146,0.0,1.0,91,0.00,,,0.07,Wunderground v.1.15,2013-04-28 22:40:00,
2013-04-28 18:50:00,55.8,53.2,30.17,SE,146,0.0,1.0,91,0.00,,,0.07,Wunderground v.1.15,2013-04-28 22:50:00,
2013-04-28 19:00:00,55.7,53.1,30.17,SE,146,0.0,0.0,91,0.00,,,0.07,Wunderground v.1.15,2013-04-28 23:00:00,
2013-04-28 19:10:00,55.7,52.8,30.17,North,11,1.0,2.0,90,0.00,,,0.07,Wunderground v.1.15,2013-04-28 23:10:00,
2013-04-28 19:20:00,55.8,53.2,30.17,North,11,1.0,1.0,91,0.00,,,0.07,Wunderground v.1.15,2013-04-28 23:20:00,
2013-04-28 19:30:00,55.7,53.1,30.16,North,11,0.0,0.0,91,0.00,,,0.07,Wunderground v.1.15,2013-04-28 23:30:00,
2013-04-28 19:40:00,55.6,53.3,30.18,North,5,1.0,2.0,92,0.00,,,0.07,Wunderground v.1.15,2013-04-28 23:40:00,
2013-04-28 19:50:00,55.1,52.5,30.18,North,355,3.0,3.0,91,0.00,,,0.07,Wunderground v.1.15,2013-04-28 23:50:00,
2013-04-28 20:00:00,54.6,51.7,30.19,NNW,346,2.0,2.0,90,0.00,,,0.07,Wunderground v.1.15,2013-04-29 00:00:00,
2013-04-28 20:10:00,54.5,51.6,30.19,NNW,346,1.0,1.0,90,0.00,,,0.07,Wunderground v.1.15,2013-04-29 00:10:00,
2013-04-28 20:20:00,54.5,51.9,30.19,NNW,346,1.0,2.0,91,0.00,,,0.07,Wunderground v.1.15,2013-04-29 00:20:00,
2013-04-28 20:30:00,54.5,51.9,30.19,NNW,346,1.0,1.0,91,0.00,,,0.07,Wunderground v.1.15,2013-04-29 00:30:00,
2013-04-28 20:40:00,54.4,51.8,30.19,NNW,346,0.0,3.0,91,0.00,,,0.07,Wunderground v.1.15,2013-04-29 00:40:00,
2013-04-28 20:50:00,54.3,52.0,30.19,NNW,346,0.0,3.0,92,0.00,,,0.07,Wunderground v.1.15,2013-04-29 00:50:00,
2013-04-28 21:00:00,54.2,52.2,30.19,NNW,346,0.0,0.0,93,0.00,,,0.07,Wunderground v.1.15,2013-04-29 01:00:00,
2013-04-28 21:10:00,53.9,51.9,30.19,NNW,346,0.0,0.0,93,0.00,,,0.07,Wunderground v.1.15,2013-04-29 01:10:00,
2013-04-28 21:20:00,53.8,52.1,30.18,NNW,346,0.0,0.0,94,0.00,,,0.07,Wunderground v.1.15,2013-04-29 01:20:00,
2013-04-28 21:30:00,53.8,52.1,30.18,NNW,346,0.0,0.0,94,0.00,,,0.07,Wunderground v.1.15,2013-04-29 01:30:00,
2013-04-28 21:40:00,53.9,52.2,30.18,NNW,346,0.0,4.0,94,0.00,,,0.07,Wunderground v.1.15,2013-04-29 01:40:00,
2013-04-28 21:50:00,53.9,51.9,30.19,NNW,346,0.0,4.0,93,0.00,,,0.07,Wunderground v.1.15,2013-04-29 01:50:00,
2013-04-28 22:00:00,54.1,52.1,30.19,NNW,346,0.0,0.0,93,0.00,,,0.07,Wunderground v.1.15,2013-04-29 02:00:00,
2013-04-28 22:10:00,54.0,52.3,30.20,NNW,346,0.0,0.0,94,0.00,,,0.07,Wunderground v.1.15,2013-04-29 02:10:00,
2013-04-28 22:20:00,53.9,51.9,30.20,NNW,347,0.0,0.0,93,0.00,,,0.07,Wunderground v.1.15,2013-04-29 02:20:00,
2013-04-28 22:30:00,53.9,51.9,30.20,West,266,1.0,1.0,93,0.00,,,0.07,Wunderground v.1.15,2013-04-29 02:30:00,
2013-04-28 22:40:00,53.7,50.5,30.20,SSW,211,1.0,1.0,89,0.00,,,0.07,Wunderground v.1.15,2013-04-29 02:40:00,
2013-04-28 22:50:00,54.2,51.0,30.19,SE,139,1.0,1.0,89,0.00,,,0.07,Wunderground v.1.15,2013-04-29 02:50:00,
2013-04-28 23:00:00,54.2,50.4,30.19,SSE,155,0.0,0.0,87,0.00,,,0.07,Wunderground v.1.15,2013-04-29 03:00:00,
2013-04-28 23:10:00,54.3,49.9,30.19,SSE,153,0.0,0.0,85,0.00,,,0.07,Wunderground v.1.15,2013-04-29 03:10:00,
2013-04-28 23:20:00,54.3,50.5,30.19,SSE,154,0.0,0.0,87,0.00,,,0.07,Wunderground v.1.15,2013-04-29 03:20:00,
2013-04-28 23:30:00,54.1,50.6,30.18,SSE,153,0.0,0.0,88,0.00,,,0.07,Wunderground v.1.15,2013-04-29 03:30:00,
2013-04-28 23:40:00,53.9,50.1,30.19,South,174,0.0,4.0,87,0.00,,,0.07,Wunderground v.1.15,2013-04-29 03:40:00,
2013-04-28 23:50:00,53.8,50.3,30.18,SE,124,0.0,4.0,88,0.00,,,0.07,Wunderground v.1.15,2013-04-29 03:50:00,